Welcome to our new website - Welkom op onze vernieuwde website - Bienvenue sur notre nouveau site web - Willkommen auf unserer neuen Website
Check our progress frequently. Prüfen Sie unsere Fortschritte regelmäßig. Consultez notre progression fréquemment. Komt u straks nog eens

KNMI Weersverwachting is alleen beschikbaar in de Nederlandse Taal, Ongeacht welke taal u kiest.
KNMI weather forecast is only available in the Dutch language, No matter what language you choose.






Meteo Oudkarspel - De weer weet site voor Langedijk

Blijf op de hoogte van het actuele weer, Keep up to date with the current weather.



Lokaal brand risico:
CBI


Regionaal brand risico: Meer informatie


Mijn Webcam Meer informatie My webcam


Mijn Webcam 2 Meer informatie My webcam 2


Onweer radar Meer informatie blitzortung!


Regen radar Meer informatie rain snow radar


Bezoek onze andere website:

Template documentation
and downloads

And another site

Template - Davis WeatherLink Version
Vantage Veu

Template - Meteotemplate

Template - HomeWeatherStation

PDøROK Multimedia

Lief Langedijk

Ijsvereniging Volharding

Meteo Tuitjenhorn

Meteo Delfzijl

Meteo Sauwerd

Meteo Sauwerd

NPO 3FM Serious Request

Norderney



Het weer levert geen direct gevaar op.    Er zijn geen waarschuwingen afgegeven.

METAR rapporten vliegvelden

   
EHAM - Amsterdam
Gewijzigd: 22-May-2018 23:25
Helder  
Helder  
   Wind: NNO 14.8 km/h
Wind: NNO 14.8 km/h
Temperatuur: 18°C
Dauwpunt: 10°C
Vochtigheid: 60%
Barometer: 1016 hPa
Zicht: meer dan 10 km
Bewolking: Helder
EHAM 222125Z 02008KT 340V060 CAVOK 18/10 Q1016 NOSIG
EHRD - Rotterdam
Gewijzigd: 22-May-2018 23:25
Licht bewolkt  
Licht bewolkt  
   Wind: NNO 11.1 km/h
Wind: NNO 11.1 km/h
Temperatuur: 19°C
Dauwpunt: 11°C
Vochtigheid: 60%
Barometer: 1016 hPa
Bewolking: Licht bewolkt
Zicht: meer dan 10 km
Bewolking: Licht bewolkt 944.9 m
EHRD 222125Z AUTO 03006KT 360V070 9999 FEW031CB 19/11 Q1016 NOSIG
EHEH - Eindhoven
Gewijzigd: 22-May-2018 23:25
Wat regen mogelijk, Bewolking  
Wat regen mogelijk, Bewolking  
   Wind: NNO 5.6 km/h
Wind: NNO 5.6 km/h
Temperatuur: 15°C
Dauwpunt: 14°C
Vochtigheid: 94%
Barometer: 1015 hPa
Bewolking: Bewolking
Zicht: meer dan 10 km
Bewolking: Licht bewolkt 30.5 m,
Licht bewolkt 457.2 m,
Bewolking 2560.3 m
EHEH 222125Z AUTO 02003KT 340V070 9999 -RA FEW001 FEW015CB OVC084 15/14 Q1015 RERA REDZ BLU 02003KT 7000 FEW040CB BKN080 TEMPO VRB10G20KT 2000 TSRA SHRA BKN035CB SCT050
EHKD - Den Helder
Gewijzigd: 22-May-2018 23:25
Bewolking  
Bewolking  
   Wind: NNO 22.2 km/h
Wind: NNO 22.2 km/h
Temperatuur: 16°C
Dauwpunt: 11°C
Vochtigheid: 72%
Barometer: 1017 hPa
Bewolking: Bewolking
Zicht: meer dan 10 km
Bewolking: Gedeeltelijk bewolkt 2133.6 m,
Bewolking 7315.2 m
EHKD 222125Z AUTO 03012KT 350V070 9999 SCT070 OVC240 16/11 Q1017 BLU 03012KT CAVOK
EHGG - Groningen
Gewijzigd: 22-May-2018 23:25
Gedeeltelijk bewolkt  
Gedeeltelijk bewolkt  
   Wind: NNO 7.4 km/h
Wind: NNO 7.4 km/h
Temperatuur: 16°C
Dauwpunt: 12°C
Vochtigheid: 77%
Barometer: 1016 hPa
Bewolking: Gedeeltelijk bewolkt
Zicht: meer dan 10 km
Bewolking: Gedeeltelijk bewolkt
EHGG 222125Z AUTO 03004KT 9999 NSC 16/12 Q1016
EHBK - Maastricht
Gewijzigd: 22-May-2018 23:25
Gedeeltelijk bewolkt  
Gedeeltelijk bewolkt  
   Wind: ONO 9.3 km/h
Wind: ONO 9.3 km/h
Temperatuur: 15°C
Dauwpunt: 14°C
Vochtigheid: 94%
Barometer: 1015 hPa
Bewolking: Gedeeltelijk bewolkt
Zicht: 7 km
Bewolking: Gedeeltelijk bewolkt
EHBK 222125Z AUTO 06005KT 7000 NSC 15/14 Q1015

Script ontwikkeld door  Saratoga-weather.org Aangepast voor de template door  Weerstation Leuven

U vindt ons ook hier:

Het Weer Aktueel

UK Metoffice

European Weather Network

WeatherCloud

Weather Underground

Benelux Weer Netwerk

AWEKAS

Citizen Weather Observer Program (CWOP)

HAMweather, WeatherForYou, PWS Weather

Apparatuur in gebruik:

Weerstation
Davis - Vantage Veu

Weerprogramma
Meteobridge

Weercomputer
Carambola2 - MeteroBridge Pro

Webleverancier
1Eurohosting

Hardwareleverancier 1
Uurwerk- & Meteospecialist Vlasma

Hardwareleverancier 2
Weerhuisje

Davis - Vantage Veu

Meteobridge

Carambola2 - MeteroBridge Pro

1Eurohosting

Uurwerk- & Meteospecialist Vlasma

Weerhuisje


Alles over het weer rondom het weerstation van Meteo Oudkarspel, vind je hier. Dus alles onder 1 dak.

Everything about the weather around the Meteo Oudkarspel weather station can be found here. So everything under one roof..

Dus kom regelmatig terug, So come back regularly.